Soleil Weather Down

Nearby METAR Reports

 

KCNI - Canton/Cherokee, Georgia, USA
Distance from station: ENE 6mi, 10km
Updated: Thu, 21-Jun-2018 11:55am EDT
Mostly cloudy
Mostly cloudy
 Wind from W
Wind: W 3 mph , 6 km/h
Temperature: 82°F , 28°C
Heat Index: 84°F , 29°C
Dew Point: 64°F , 18°C
Humidity: 55%
Barometer: 29.96 inHg , 1014.6 hPa
Clouds: Mostly cloudy
Visibility: 10 miles , 16 km
Cloud details: Mostly cloudy 3700 ft
Mostly cloudy 12000 ft
2018/06/21 15:55 KCNI 211555Z AUTO 28003KT 10SM BKN037 BKN120 28/18 A2996 RMK AO2
KRYY - Marietta Mccolum, Georgia, USA
Distance from station: SSW 18mi, 29km
Updated: Thu, 21-Jun-2018 11:48am EDT
Partly cloudy
Partly cloudy
 Wind from W
Wind: W 8 mph , 13 km/h
Temperature: 82°F , 28°C
Heat Index: 86°F , 30°C
Dew Point: 72°F , 22°C
Humidity: 70%
Barometer: 29.94 inHg , 1013.9 hPa
Clouds: Partly cloudy
Visibility: 10 miles , 16 km
Cloud details: Few Clouds 2800 ft
Partly cloudy 12000 ft
2018/06/21 15:48 KRYY 211548Z 27007KT 240V310 10SM FEW028 SCT120 28/22 A2994 RMK AO2 SLP859 T02830222
KVPC - Cartersville, Georgia, USA
Distance from station: WSW 22mi, 35km
Updated: Thu, 21-Jun-2018 11:53am EDT
Few Clouds
Few Clouds
 Wind from varies
Wind: varies 6 mph , 9 km/h
Temperature: 82°F , 28°C
Heat Index: 87°F , 31°C
Dew Point: 73°F , 23°C
Humidity: 74%
Barometer: 29.93 inHg , 1013.5 hPa
Clouds: Few Clouds
Visibility: 10 miles , 16 km
Cloud details: Few Clouds 8000 ft
2018/06/21 15:53 KVPC 211553Z AUTO VRB05KT 10SM FEW080 28/23 A2993 RMK AO2 LTG DSNT S-NW SLP123 T02780228
 
KMGE - Dobbins Afb/Mari, Georgia, USA
Distance from station: S 24mi, 39km
Updated: Thu, 21-Jun-2018 11:56am EDT
Overcast
Overcast
 Wind from WSW
Wind: WSW 9 mph , 15 km/h
Temperature: 86°F , 30°C
Heat Index: 92°F , 33°C
Dew Point: 72°F , 22°C
Humidity: 62%
Barometer: 29.93 inHg , 1013.5 hPa
Clouds: Overcast
Visibility: 10 miles , 16 km
Cloud details: Partly cloudy 3400 ft
Mostly cloudy 11000 ft
Overcast 25000 ft
2018/06/21 15:56 KMGE 211556Z 25008KT 10SM SCT034 BKN110 OVC250 30/22 A2993 RMK AO2A SLP124 T02980217 $
KPDK - Peachtree/Dekalb, Georgia, USA
Distance from station: SSE 29mi, 47km
Updated: Thu, 21-Jun-2018 11:53am EDT
Clear
Clear
 Wind from WSW
Wind: WSW 12 mph , 19 km/h, Gust: 18 mph , 30 km/h
Temperature: 86°F , 30°C
Heat Index: 92°F , 33°C
Dew Point: 72°F , 22°C
Humidity: 62%
Barometer: 29.92 inHg , 1013.2 hPa
Clouds: Clear
Visibility: 10 miles , 16 km
2018/06/21 15:53 KPDK 211553Z 25010G16KT 10SM CLR 30/22 A2992 RMK AO2 SLP111 T03000217
KFTY - Atlanta/Fulton, Georgia, USA
Distance from station: S 34mi, 54km
Updated: Thu, 21-Jun-2018 11:53am EDT
Few Clouds
Few Clouds
 Wind from SW
Wind: SW 10 mph , 17 km/h
Temperature: 84°F , 29°C
Heat Index: 90°F , 32°C
Dew Point: 73°F , 23°C
Humidity: 70%
Barometer: 29.92 inHg , 1013.2 hPa
Clouds: Few Clouds
Visibility: 10 miles , 16 km
Cloud details: Few Clouds 12000 ft
2018/06/21 15:53 KFTY 211553Z 23009KT 10SM FEW120 29/23 A2992 RMK AO2 LTG DSNT W SLP119 T02940228
 
KPUJ - Atlanta/Paulding, Georgia, USA
Distance from station: SW 34mi, 55km
Updated: Thu, 21-Jun-2018 11:55am EDT
Mostly cloudy
Mostly cloudy
 Wind from WNW
Wind: WNW 6 mph , 9 km/h
Temperature: 79°F , 26°C
Dew Point: 70°F , 21°C
Humidity: 74%
Barometer: 29.95 inHg , 1014.2 hPa
Clouds: Mostly cloudy
Visibility: 7 miles , 11 km
Cloud details: Partly cloudy 7000 ft
Mostly cloudy 11000 ft
2018/06/21 15:55 KPUJ 211555Z AUTO 29005KT 7SM SCT070 BKN110 26/21 A2995 RMK AO2 LTG DSNT SE
KDNN - Dalton, Georgia, USA
Distance from station: NW 37mi, 59km
Updated: Thu, 21-Jun-2018 11:55am EDT
Overcast
Overcast
 Wind from S
Wind: S 3 mph , 6 km/h
Temperature: 77°F , 25°C
Dew Point: 72°F , 22°C
Humidity: 83%
Barometer: 29.94 inHg , 1013.9 hPa
Clouds: Overcast
Visibility: 10 miles , 16 km
Cloud details: Partly cloudy 1200 ft
Mostly cloudy 3600 ft
Overcast 8000 ft
2018/06/21 15:55 KDNN 211555Z AUTO 17003KT 10SM SCT012 BKN036 OVC080 25/22 A2994 RMK AO2 LTG DSNT SW
KLZU - Lawrenceville, Georgia, USA
Distance from station: ESE 37mi, 59km
Updated: Thu, 21-Jun-2018 11:56am EDT
Partly cloudy
Partly cloudy
 Wind from WSW
Wind: WSW 8 mph , 13 km/h
Temperature: 84°F , 29°C
Heat Index: 89°F , 32°C
Dew Point: 72°F , 22°C
Humidity: 66%
Barometer: 29.92 inHg , 1013.2 hPa
Clouds: Partly cloudy
Visibility: 10 miles , 16 km
Cloud details: Partly cloudy 4000 ft
2018/06/21 15:56 KLZU 211556Z 24007KT 10SM SCT040 29/22 A2992 RMK AO2 SLP131 T02940222
 
KRMG - Rome, Georgia, USA
Distance from station: W 38mi, 61km
Updated: Thu, 21-Jun-2018 11:53am EDT
Nearby thunderstorm, Light rain, Overcast
Nearby thunderstorm, Light rain, Overcast
 Wind from W
Wind: W 5 mph , 7 km/h
Temperature: 79°F , 26°C
Dew Point: 75°F , 24°C
Humidity: 89%
Barometer: 29.92 inHg , 1013.2 hPa
Summary: Nearby thunderstorm, Light rain
Clouds: Overcast
Visibility: 10 miles , 16 km
Cloud details: Partly cloudy 5500 ft
Mostly cloudy 7000 ft
Overcast 9000 ft
2018/06/21 15:53 KRMG 211553Z AUTO 26004KT 10SM VCTS -RA SCT055 BKN070 OVC090 26/24 A2992 RMK AO2 LTG DSNT SW RAB53 SLP122 P0000 T02610239
KGVL - Gainesville, Georgia, USA
Distance from station: E 39mi, 62km
Updated: Thu, 21-Jun-2018 11:53am EDT
Clear
Clear
 Wind from W
Wind: W 9 mph , 15 km/h
Temperature: 84°F , 29°C
Heat Index: 88°F , 31°C
Dew Point: 70°F , 21°C
Humidity: 62%
Barometer: 29.95 inHg , 1014.2 hPa
Clouds: Clear
Visibility: 10 miles , 16 km
2018/06/21 15:53 KGVL 211553Z AUTO 26008KT 10SM CLR 29/21 A2995 RMK AO2 SLP122 T02890211
KATL - Atlanta, Georgia, USA
Distance from station: S 44mi, 71km
Updated: Thu, 21-Jun-2018 11:52am EDT
Mostly cloudy
Mostly cloudy
 Wind from WSW
Wind: WSW 10 mph , 17 km/h
Temperature: 84°F , 29°C
Heat Index: 89°F , 32°C
Dew Point: 72°F , 22°C
Humidity: 66%
Barometer: 29.93 inHg , 1013.5 hPa
Clouds: Mostly cloudy
Visibility: 10 miles , 16 km
Cloud details: Few Clouds 3500 ft
Mostly cloudy 15000 ft
Mostly cloudy 20000 ft
2018/06/21 15:52 KATL 211552Z 25009KT 10SM FEW035 BKN150 BKN200 29/22 A2993 RMK AO2 LTG DSNT W SLP122 CB DSNT W ACC NE T02940217